Time;durP1;ratioP1;P1;durP2;ratioP2;P2;SDS_P1;SDS_P2;PMS_P1;PMS_P2;Temp;Humidity;BMP_temperature;BMP_pressure;BME280_temperature;BME280_humidity;BME280_pressure;Samples;Min_cycle;Max_cycle;Signal;HPM_P1;HPM_P2
2022/01/23 00:01:41;;;;;;;16.50;6.50;;;;;;;-0.98;75.33;101153.48;130316;1267;108828;-78
2022/01/23 00:04:45;;;;;;;;;;;;;;;-1.00;75.37;101161.58;130407;1267;108943;-80
2022/01/23 00:07:51;;;;;;;16.00;6.20;;;;;;;-1.01;75.33;101165.27;130378;1267;108690;-82
2022/01/23 00:10:57;;;;;;;20.80;7.90;;;;;;;-1.02;75.53;101165.99;130458;1267;108733;-85
2022/01/23 00:17:41;;;;;;;14.80;5.60;;;;;;;-1.03;75.45;101176.35;130415;1267;108835;-79
2022/01/23 00:20:46;;;;;;;15.40;6.90;;;;;;;-0.99;75.37;101178.12;130492;1267;106561;-83
2022/01/23 00:30:40;;;;;;;17.20;5.80;;;;;;;-0.96;75.44;101152.34;130472;1267;108499;-81
2022/01/23 00:33:46;;;;;;;14.90;5.90;;;;;;;-1.01;75.79;101150.77;130366;1267;107685;-80
2022/01/23 00:36:52;;;;;;;16.60;6.10;;;;;;;-1.03;75.27;101149.45;130322;1267;108629;-77
2022/01/23 00:39:57;;;;;;;16.10;6.10;;;;;;;-1.04;75.62;101146.02;130298;1267;108745;-77
2022/01/23 00:43:08;;;;;;;10.60;5.30;;;;;;;-1.03;75.56;101155.58;130337;1267;108582;-77
2022/01/23 00:46:23;;;;;;;15.40;5.80;;;;;;;-0.99;75.41;101152.10;130348;1267;108669;-78
2022/01/23 00:49:29;;;;;;;13.40;5.40;;;;;;;-0.92;75.37;101149.24;130372;1267;108771;-79
2022/01/23 00:52:38;;;;;;;15.00;6.00;;;;;;;-0.91;75.26;101144.99;130327;1267;108789;-78
2022/01/23 00:55:46;;;;;;;13.10;5.90;;;;;;;-0.91;75.57;101144.83;130374;1267;106764;-79
2022/01/23 00:58:52;;;;;;;14.80;5.90;;;;;;;-0.95;75.37;101146.36;130316;1267;108559;-78
2022/01/23 01:01:57;;;;;;;14.80;6.80;;;;;;;-1.00;75.48;101153.90;130339;1267;107734;-78
2022/01/23 01:05:04;;;;;;;14.70;5.90;;;;;;;-1.02;75.62;101153.26;130330;1267;108833;-78
2022/01/23 01:08:10;;;;;;;13.90;5.30;;;;;;;-1.01;75.76;101155.32;130346;1267;108783;-79
2022/01/23 01:11:40;;;;;;;15.70;6.30;;;;;;;-0.96;75.32;101157.42;130326;1267;106729;-79
2022/01/23 01:15:11;;;;;;;12.70;5.30;;;;;;;-0.90;75.34;101153.16;130419;1267;108894;-78
2022/01/23 01:31:58;;;;;;;17.10;6.20;;;;;;;-1.01;75.26;101146.41;130227;1267;107689;-73
2022/01/23 01:35:15;;;;;;;13.70;5.40;;;;;;;-1.04;75.34;101149.66;130247;1267;108686;-75
2022/01/23 01:38:21;;;;;;;11.20;5.30;;;;;;;-1.04;75.29;101148.45;130382;1267;108995;-76
2022/01/23 01:41:28;;;;;;;12.90;5.50;;;;;;;-1.00;75.44;101147.61;130375;1267;107727;-75
2022/01/23 01:44:33;;;;;;;13.50;5.60;;;;;;;-0.99;75.36;101145.84;130370;1267;108851;-74
2022/01/23 01:48:04;;;;;;;13.70;6.10;;;;;;;-1.00;75.05;101157.55;130399;1267;109009;-75
2022/01/23 01:51:15;;;;;;;11.80;5.50;;;;;;;-0.99;75.29;101156.83;130280;1267;108842;-76
2022/01/23 01:54:22;;;;;;;13.00;5.60;;;;;;;-1.05;75.50;101160.54;130263;1267;108798;-76
2022/01/23 01:57:35;;;;;;;12.90;5.30;;;;;;;-1.12;75.60;101162.02;130337;1267;108758;-75
2022/01/23 02:01:00;;;;;;;15.20;5.20;;;;;;;-1.13;75.44;101158.75;130390;1267;108899;-76
2022/01/23 02:11:04;;;;;;;12.30;5.70;;;;;;;-1.04;75.38;101154.57;130367;1267;108720;-76
2022/01/23 02:14:25;;;;;;;12.00;5.40;;;;;;;-1.01;75.21;101156.21;130341;1267;108806;-76
2022/01/23 02:17:53;;;;;;;13.50;6.20;;;;;;;-1.05;75.31;101154.59;130338;1266;108744;-76
2022/01/23 02:25:27;;;;;;;12.30;5.10;;;;;;;-1.11;75.11;101150.45;129940;1267;109125;-76
2022/01/23 02:52:36;;;;;;;12.90;5.60;;;;;;;-1.29;75.67;101175.02;130300;1267;108818;-73
2022/01/23 02:55:45;;;;;;;14.70;4.90;;;;;;;-1.32;75.79;101170.08;130419;1266;108877;-76
2022/01/23 02:58:59;;;;;;;11.00;5.00;;;;;;;-1.29;75.72;101169.80;130353;1267;106694;-74
2022/01/23 03:02:13;;;;;;;14.80;5.90;;;;;;;-1.27;75.81;101177.23;130333;1267;108717;-75
2022/01/23 03:05:41;;;;;;;13.90;5.50;;;;;;;-1.26;75.97;101182.23;130348;1267;108828;-74
2022/01/23 03:09:11;;;;;;;11.90;4.70;;;;;;;-1.24;75.69;101186.19;130371;1267;108893;-74
2022/01/23 03:13:07;;;;;;;15.20;5.00;;;;;;;-1.21;75.68;101184.65;130463;1267;108811;-73
2022/01/23 03:16:18;;;;;;;14.50;5.60;;;;;;;-1.21;75.53;101190.42;130412;1267;109094;-75
2022/01/23 03:26:27;;;;;;;12.30;5.00;;;;;;;-1.26;75.91;101197.77;130375;1266;109008;-74
2022/01/23 03:32:53;;;;;;;13.50;5.60;;;;;;;-1.14;75.97;101197.01;130368;1267;109209;-74
2022/01/23 03:35:58;;;;;;;12.20;5.70;;;;;;;-1.12;75.59;101202.89;130425;1267;108841;-76
2022/01/23 03:39:07;;;;;;;12.10;5.00;;;;;;;-1.14;75.63;101207.31;130384;1267;108858;-77
2022/01/23 03:42:13;;;;;;;11.70;5.40;;;;;;;-1.16;75.93;101210.52;130446;1267;108919;-76
2022/01/23 03:45:43;;;;;;;12.30;5.50;;;;;;;-1.23;75.83;101217.91;130399;1267;108578;-74
2022/01/23 03:52:15;;;;;;;13.00;5.20;;;;;;;-1.32;76.10;101219.11;130329;1267;108779;-75
2022/01/23 03:55:21;;;;;;;13.00;5.80;;;;;;;-1.32;76.25;101221.38;130349;1267;107878;-77
2022/01/23 03:58:28;;;;;;;13.60;5.50;;;;;;;-1.31;76.23;101227.83;130353;1267;108844;-75
2022/01/23 04:01:33;;;;;;;11.60;5.10;;;;;;;-1.33;76.23;101235.02;130356;1267;108881;-77
2022/01/23 04:04:39;;;;;;;13.20;5.60;;;;;;;-1.34;76.17;101236.66;130498;1267;108658;-78
2022/01/23 04:07:47;;;;;;;12.50;5.50;;;;;;;-1.34;76.24;101244.51;130851;1267;108781;-78
2022/01/23 04:10:53;;;;;;;13.40;5.60;;;;;;;-1.36;76.21;101238.48;130514;1267;108728;-78
2022/01/23 04:14:03;;;;;;;14.00;6.10;;;;;;;-1.41;76.49;101241.56;130368;1267;108795;-77
2022/01/23 04:17:59;;;;;;;15.10;5.90;;;;;;;-1.45;76.89;101239.98;130800;1267;108986;-77
2022/01/23 04:21:02;;;;;;;13.20;5.60;;;;;;;-1.47;76.91;101241.98;130522;1267;108815;-76
2022/01/23 04:34:25;;;;;;;14.60;6.20;;;;;;;-1.40;77.03;101258.66;130352;1267;109037;-74
2022/01/23 05:01:23;;;;;;;20.70;8.10;;;;;;;-1.29;76.82;101268.41;130268;1267;106835;-72
2022/01/23 05:04:37;;;;;;;19.10;7.70;;;;;;;-1.28;77.06;101273.98;130389;1266;108779;-72
2022/01/23 05:07:53;;;;;;;14.70;6.10;;;;;;;-1.28;77.00;101269.09;130317;1267;108766;-76
2022/01/23 05:11:17;;;;;;;16.90;7.30;;;;;;;-1.28;76.82;101266.98;130388;1266;108998;-75
2022/01/23 05:14:45;;;;;;;24.80;9.10;;;;;;;-1.30;77.11;101271.43;130337;1267;108870;-78
2022/01/23 05:17:52;;;;;;;17.50;6.90;;;;;;;-1.35;77.29;101267.04;130415;1267;108958;-78
2022/01/23 05:21:09;;;;;;;17.10;6.90;;;;;;;-1.31;77.03;101264.48;130525;1267;106894;-74
2022/01/23 05:24:16;;;;;;;29.80;9.50;;;;;;;-1.24;77.10;101275.73;130524;1267;108573;-76
2022/01/23 05:27:23;;;;;;;23.70;8.60;;;;;;;-1.16;76.94;101284.39;130511;1266;108720;-76
2022/01/23 05:30:28;;;;;;;21.90;8.80;;;;;;;-1.10;76.91;101288.16;130424;1266;109655;-75
2022/01/23 05:33:34;;;;;;;21.60;9.10;;;;;;;-1.12;77.12;101296.98;130392;1267;108729;-79
2022/01/23 05:36:39;;;;;;;23.00;9.00;;;;;;;-1.13;76.98;101312.40;130325;1267;108959;-79
2022/01/23 05:39:46;;;;;;;40.20;14.00;;;;;;;-1.15;77.03;101320.85;130569;1267;108860;-81
2022/01/23 05:42:51;;;;;;;25.80;9.50;;;;;;;-1.21;77.32;101322.24;130386;1267;108717;-81
2022/01/23 05:45:58;;;;;;;19.60;8.60;;;;;;;-1.26;77.37;101321.36;130443;1267;108895;-78
2022/01/23 05:49:12;;;;;;;30.30;10.00;;;;;;;-1.25;77.46;101328.50;130397;1266;108725;-77
2022/01/23 05:52:41;;;;;;;41.30;12.30;;;;;;;-1.18;77.40;101332.63;130191;1267;109150;-74
2022/01/23 05:56:06;;;;;;;34.60;11.50;;;;;;;-1.10;77.15;101333.42;130414;1267;108849;-76
2022/01/23 05:59:30;;;;;;;35.90;12.90;;;;;;;-1.10;77.04;101338.64;130418;1267;108878;-77
2022/01/23 06:02:35;;;;;;;24.00;9.80;;;;;;;-1.11;77.05;101339.20;130286;1267;109766;-76
2022/01/23 06:05:41;;;;;;;45.10;15.20;;;;;;;-1.14;77.15;101345.29;130359;1267;108674;-75
2022/01/23 06:08:53;;;;;;;28.80;10.70;;;;;;;-1.20;77.34;101344.58;130381;1267;107899;-75
2022/01/23 06:11:58;;;;;;;26.70;10.10;;;;;;;-1.24;77.48;101342.59;130360;1267;108853;-76
2022/01/23 06:15:06;;;;;;;19.70;8.60;;;;;;;-1.25;77.70;101338.28;130472;1267;108867;-79
2022/01/23 06:18:11;;;;;;;56.60;17.90;;;;;;;-1.22;77.39;101337.64;130467;1267;109333;-76
2022/01/23 06:21:49;;;;;;;24.40;10.10;;;;;;;-1.18;77.44;101338.38;130280;1267;108949;-75
2022/01/23 06:25:15;;;;;;;22.80;10.10;;;;;;;-1.13;77.42;101346.27;130452;1267;109177;-75
2022/01/23 06:28:50;;;;;;;156.30;43.90;;;;;;;-1.10;77.16;101353.31;130348;1267;108811;-76
2022/01/23 06:31:57;;;;;;;29.20;11.20;;;;;;;-1.10;77.33;101354.35;130544;1267;108708;-74
2022/01/23 06:35:06;;;;;;;26.50;10.80;;;;;;;-1.09;77.12;101360.10;130378;1267;108675;-73
2022/01/23 06:38:12;;;;;;;30.70;11.10;;;;;;;-1.12;77.47;101358.27;130324;1267;109136;-72
2022/01/23 06:41:17;;;;;;;30.10;10.00;;;;;;;-1.13;77.25;101363.57;130305;1267;107634;-73
2022/01/23 06:44:45;;;;;;;25.50;10.20;;;;;;;-1.11;77.28;101370.28;130401;1267;108733;-76
2022/01/23 06:47:53;;;;;;;26.30;10.20;;;;;;;-1.07;77.50;101374.34;130356;1267;108829;-76
2022/01/23 06:50:58;;;;;;;25.60;10.10;;;;;;;-1.03;77.51;101374.38;130315;1267;109462;-75
2022/01/23 06:54:05;;;;;;;33.60;12.70;;;;;;;-1.03;77.26;101380.48;130387;1266;108905;-76
2022/01/23 06:57:10;;;;;;;32.10;13.80;;;;;;;-1.01;77.18;101383.59;130507;1267;108715;-78
2022/01/23 07:00:18;;;;;;;26.10;12.10;;;;;;;-0.97;77.25;101379.80;130693;1267;308671;-81
2022/01/23 07:03:47;;;;;;;21.30;9.50;;;;;;;-0.92;77.69;101383.28;130873;1267;108768;-82
2022/01/23 07:07:11;;;;;;;35.80;12.70;;;;;;;-0.91;77.32;101388.65;130693;1267;107757;-84
2022/01/23 07:10:24;;;;;;;29.10;12.10;;;;;;;-0.88;77.35;101397.98;130540;1267;107714;-84
2022/01/23 07:13:55;;;;;;;20.40;9.80;;;;;;;-0.81;77.39;101399.50;130660;1266;108682;-80
2022/01/23 07:17:26;;;;;;;19.60;9.50;;;;;;;-0.73;77.31;101407.98;130619;1267;108752;-79
2022/01/23 07:20:39;;;;;;;23.90;10.30;;;;;;;-0.67;77.14;101413.88;130517;1267;108848;-79
2022/01/23 07:23:52;;;;;;;162.50;65.80;;;;;;;-0.68;77.04;101424.95;130489;1267;108767;-80
2022/01/23 07:27:06;;;;;;;79.30;37.30;;;;;;;-0.65;77.16;101432.85;130421;1267;108833;-76
2022/01/23 07:30:25;;;;;;;114.90;59.40;;;;;;;-0.65;77.01;101438.10;130276;1267;108750;-77
2022/01/23 07:33:33;;;;;;;173.00;91.30;;;;;;;-0.60;77.07;101436.90;130349;1267;108767;-77
2022/01/23 07:36:39;;;;;;;80.80;44.20;;;;;;;-0.53;77.02;101438.22;130356;1267;109066;-77
2022/01/23 07:39:59;;;;;;;66.40;38.20;;;;;;;-0.50;76.91;101442.48;130323;1267;108705;-80
2022/01/23 07:43:13;;;;;;;23.20;11.30;;;;;;;-0.43;76.92;101446.96;130532;1267;108635;-80
2022/01/23 07:46:38;;;;;;;25.80;12.00;;;;;;;-0.35;76.67;101447.05;130575;1267;108507;-78
2022/01/23 07:50:10;;;;;;;25.20;13.60;;;;;;;-0.28;76.61;101455.00;130567;1267;108859;-77
2022/01/23 07:53:45;;;;;;;27.20;12.70;;;;;;;-0.27;76.53;101451.28;130430;1267;107773;-76
2022/01/23 07:57:01;;;;;;;26.60;13.50;;;;;;;-0.27;76.40;101457.05;130467;1267;108761;-80
2022/01/23 08:00:34;;;;;;;24.30;12.90;;;;;;;-0.30;76.26;101467.13;130291;1267;106684;-82
2022/01/23 08:03:41;;;;;;;27.20;14.70;;;;;;;-0.34;76.21;101469.05;130517;1267;108928;-76
2022/01/23 08:07:08;;;;;;;30.40;15.90;;;;;;;-0.35;76.45;101479.75;130424;1267;108861;-77
2022/01/23 08:10:32;;;;;;;22.80;11.30;;;;;;;-0.28;76.62;101488.77;130386;1267;108928;-77
2022/01/23 08:13:38;;;;;;;23.00;11.70;;;;;;;-0.24;76.28;101499.98;130503;1267;108836;-77
2022/01/23 08:16:43;;;;;;;24.80;13.00;;;;;;;-0.17;76.21;101510.23;130538;1267;108746;-76
2022/01/23 08:19:48;;;;;;;42.90;21.30;;;;;;;-0.12;76.12;101509.88;130525;1267;108963;-74
2022/01/23 08:22:54;;;;;;;63.30;30.90;;;;;;;-0.08;76.08;101501.70;130524;1267;108769;-77
2022/01/23 08:25:59;;;;;;;58.20;25.60;;;;;;;-0.04;76.21;101498.39;130592;1267;108857;-75
2022/01/23 08:29:05;;;;;;;47.70;23.40;;;;;;;0.05;76.22;101503.50;130575;1267;107698;-79
2022/01/23 08:32:11;;;;;;;25.40;12.70;;;;;;;0.10;76.04;101507.02;130434;1267;108799;-77
2022/01/23 08:35:17;;;;;;;23.70;12.30;;;;;;;0.22;76.54;101506.39;130495;1267;108843;-77
2022/01/23 08:38:23;;;;;;;22.50;11.40;;;;;;;0.30;75.95;101505.77;130328;1267;107504;-77
2022/01/23 08:44:52;;;;;;;19.20;10.10;;;;;;;0.22;75.25;101514.42;130406;1267;108766;-77
2022/01/23 08:47:57;;;;;;;21.00;11.20;;;;;;;0.23;75.74;101520.01;130471;1267;107499;-76
2022/01/23 08:51:02;;;;;;;22.10;11.40;;;;;;;0.30;75.62;101526.05;130892;1267;108755;-77
2022/01/23 08:54:09;;;;;;;23.20;10.90;;;;;;;0.38;75.79;101533.11;130540;1267;108677;-77
2022/01/23 08:57:15;;;;;;;21.10;11.30;;;;;;;0.42;75.40;101544.02;130681;1267;108708;-79
2022/01/23 09:00:21;;;;;;;25.90;14.10;;;;;;;0.40;75.63;101549.34;130510;1267;108918;-76
2022/01/23 09:03:26;;;;;;;28.20;13.90;;;;;;;0.45;75.74;101563.50;130396;1267;108778;-75
2022/01/23 09:06:32;;;;;;;27.00;13.50;;;;;;;0.51;75.61;101571.17;130379;1267;108860;-76
2022/01/23 09:09:39;;;;;;;28.30;16.10;;;;;;;0.50;75.06;101568.57;130448;1267;108770;-77
2022/01/23 09:12:58;;;;;;;23.90;12.10;;;;;;;0.46;75.67;101569.06;130338;1267;108991;-77
2022/01/23 09:16:05;;;;;;;19.70;10.90;;;;;;;0.52;75.63;101570.59;130239;1268;108813;-78
2022/01/23 09:19:12;;;;;;;20.00;9.60;;;;;;;0.60;75.63;101576.79;130302;1268;108523;-77
2022/01/23 09:22:17;;;;;;;20.10;10.70;;;;;;;0.67;75.35;101578.96;130306;1268;108759;-76
2022/01/23 09:25:23;;;;;;;19.60;10.60;;;;;;;0.75;75.44;101578.31;130249;1268;109101;-75
2022/01/23 09:28:32;;;;;;;19.60;10.30;;;;;;;0.83;75.19;101582.76;130330;1268;109018;-77
2022/01/23 09:31:48;;;;;;;20.90;10.90;;;;;;;0.89;75.34;101579.89;130330;1270;108687;-77
2022/01/23 09:34:54;;;;;;;25.10;13.40;;;;;;;0.95;74.69;101575.64;130269;1269;108611;-77
2022/01/23 09:37:59;;;;;;;18.40;10.90;;;;;;;0.92;74.73;101572.10;130302;1269;108787;-76
2022/01/23 09:41:06;;;;;;;101.70;42.10;;;;;;;0.94;75.23;101572.02;130266;1269;108803;-76
2022/01/23 09:44:13;;;;;;;27.70;14.00;;;;;;;1.02;75.26;101570.98;130405;1270;108701;-77
2022/01/23 09:47:20;;;;;;;26.70;14.40;;;;;;;1.11;75.21;101565.19;130251;1268;108832;-77
2022/01/23 09:50:26;;;;;;;22.50;13.00;;;;;;;1.23;75.25;101571.59;130277;1268;108878;-75
2022/01/23 09:53:31;;;;;;;24.40;12.80;;;;;;;1.30;74.53;101568.52;130327;1267;108872;-76
2022/01/23 09:56:37;;;;;;;22.90;10.40;;;;;;;1.33;74.28;101563.10;130251;1268;108623;-79
2022/01/23 09:59:44;;;;;;;26.00;13.00;;;;;;;1.37;73.32;101562.77;130400;1268;108938;-80
2022/01/23 10:02:50;;;;;;;20.90;12.10;;;;;;;1.40;74.18;101557.77;130419;1268;108775;-75
2022/01/23 10:05:57;;;;;;;21.40;11.70;;;;;;;1.50;73.90;101551.02;130340;1269;108612;-77
2022/01/23 10:09:06;;;;;;;22.20;13.00;;;;;;;1.59;73.81;101551.89;130340;1269;108862;-78
2022/01/23 10:12:14;;;;;;;22.30;12.00;;;;;;;1.53;73.11;101550.38;130370;1268;108469;-76
2022/01/23 10:15:21;;;;;;;26.20;15.80;;;;;;;1.52;73.54;101555.49;130337;1269;109057;-74
2022/01/23 10:18:28;;;;;;;21.30;11.50;;;;;;;1.58;73.64;101559.31;130334;1270;108822;-77
2022/01/23 10:21:36;;;;;;;23.00;13.00;;;;;;;1.57;73.03;101560.20;130308;1270;108670;-75
2022/01/23 10:24:41;;;;;;;22.70;12.00;;;;;;;1.47;73.42;101565.04;130337;1268;107427;-75
2022/01/23 10:28:03;;;;;;;24.80;14.60;;;;;;;1.39;73.33;101564.42;130616;1268;108816;-76
2022/01/23 10:31:09;;;;;;;23.40;12.60;;;;;;;1.33;73.58;101561.39;130355;1268;108864;-76
2022/01/23 10:34:14;;;;;;;36.10;19.80;;;;;;;1.34;73.84;101561.15;130242;1270;108934;-75
2022/01/23 10:37:33;;;;;;;20.50;11.30;;;;;;;1.40;73.89;101564.62;130336;1268;107104;-76
2022/01/23 10:40:47;;;;;;;26.40;13.10;;;;;;;1.45;73.52;101568.59;130299;1268;108711;-75
2022/01/23 10:47:44;;;;;;;25.60;12.50;;;;;;;1.46;73.71;101563.28;130307;1268;107066;-76
2022/01/23 10:50:49;;;;;;;19.80;10.90;;;;;;;1.51;73.79;101559.55;130153;1268;109394;-78
2022/01/23 10:54:09;;;;;;;23.30;11.30;;;;;;;1.55;73.48;101561.69;130267;1268;108976;-80
2022/01/23 10:57:14;;;;;;;22.80;12.00;;;;;;;1.51;73.03;101574.14;130215;1268;108668;-82
2022/01/23 11:00:26;;;;;;;23.20;11.90;;;;;;;1.43;73.33;101576.91;130306;1268;108777;-79
2022/01/23 11:03:31;;;;;;;21.30;11.80;;;;;;;1.41;73.51;101570.87;130328;1269;108682;-80
2022/01/23 11:06:53;;;;;;;26.20;13.70;;;;;;;1.42;73.60;101575.38;130300;1268;109107;-80
2022/01/23 11:10:01;;;;;;;24.70;11.60;;;;;;;1.40;73.68;101583.35;130316;1268;108656;-77
2022/01/23 11:20:05;;;;;;;34.60;18.50;;;;;;;1.64;73.58;101580.98;130353;1268;108832;-78
2022/01/23 11:23:16;;;;;;;58.10;36.70;;;;;;;1.68;73.56;101582.39;130333;1268;106810;-81
2022/01/23 11:26:21;;;;;;;39.60;22.00;;;;;;;1.68;73.38;101581.88;130231;1268;108764;-77
2022/01/23 11:29:27;;;;;;;35.30;19.20;;;;;;;1.70;73.38;101592.15;130225;1268;108795;-79
2022/01/23 11:32:37;;;;;;;36.00;18.40;;;;;;;1.66;73.17;101594.05;130323;1270;108667;-77
2022/01/23 11:35:42;;;;;;;31.60;15.80;;;;;;;1.53;73.18;101592.31;130293;1267;106814;-76
2022/01/23 11:38:50;;;;;;;26.20;14.90;;;;;;;1.49;73.89;101587.37;130259;1268;108736;-76
2022/01/23 11:55:46;;;;;;;29.10;14.80;;;;;;;1.63;73.31;101570.68;130230;1269;107683;-78
2022/01/23 11:58:54;;;;;;;48.60;25.00;;;;;;;1.61;73.52;101575.13;130330;1270;107268;-80
2022/01/23 12:02:36;;;;;;;26.90;16.30;;;;;;;1.64;73.43;101576.59;130409;1267;108941;-81
2022/01/23 12:05:44;;;;;;;30.10;17.20;;;;;;;1.60;73.60;101582.55;130365;1268;108788;-78
2022/01/23 12:08:49;;;;;;;30.30;16.70;;;;;;;1.59;73.56;101590.81;130315;1268;108037;-78
2022/01/23 12:12:23;;;;;;;32.50;17.90;;;;;;;1.56;73.61;101596.92;130261;1268;108688;-79
2022/01/23 12:19:14;;;;;;;44.50;26.50;;;;;;;1.44;73.69;101604.20;130523;1270;108781;-79
2022/01/23 12:22:40;;;;;;;30.90;16.40;;;;;;;1.47;73.89;101610.08;130679;1267;108909;-79
2022/01/23 12:25:47;;;;;;;38.10;16.90;;;;;;;1.46;73.81;101612.41;130427;1265;108721;-79
2022/01/23 12:28:53;;;;;;;32.70;16.30;;;;;;;1.48;73.75;101611.78;130428;1267;108869;-79
2022/01/23 12:32:26;;;;;;;52.50;22.20;;;;;;;1.49;73.58;101608.39;130440;1268;108735;-78
2022/01/23 12:35:40;;;;;;;35.70;16.20;;;;;;;1.45;73.69;101608.23;130427;1267;107497;-79
2022/01/23 12:38:48;;;;;;;29.80;17.40;;;;;;;1.44;73.70;101607.21;130552;1268;107804;-80
2022/01/23 12:41:59;;;;;;;35.60;19.20;;;;;;;1.52;73.71;101609.00;130380;1266;108684;-76
2022/01/23 12:45:25;;;;;;;32.80;18.70;;;;;;;1.59;73.80;101613.61;130558;1268;106763;-75
2022/01/23 12:48:59;;;;;;;34.70;18.30;;;;;;;1.74;73.80;101623.17;130419;1267;109335;-75
2022/01/23 12:52:19;;;;;;;58.90;26.60;;;;;;;1.79;73.42;101628.95;130428;1267;108788;-84
2022/01/23 12:55:25;;;;;;;65.40;27.80;;;;;;;1.72;72.78;101633.64;130718;1268;108674;-80
2022/01/23 12:58:33;;;;;;;70.50;32.90;;;;;;;1.62;73.29;101636.64;130606;1268;108826;-81
2022/01/23 13:01:42;;;;;;;36.10;18.00;;;;;;;1.52;73.44;101645.11;130576;1267;108750;-81
2022/01/23 13:04:50;;;;;;;77.50;38.10;;;;;;;1.41;73.35;101648.18;130397;1269;108508;-75
2022/01/23 13:08:08;;;;;;;56.20;28.50;;;;;;;1.36;73.77;101655.73;130530;1268;108983;-80
2022/01/23 13:11:50;;;;;;;32.10;16.20;;;;;;;1.44;73.96;101660.85;130441;1268;107755;-80
2022/01/23 13:15:14;;;;;;;74.10;35.40;;;;;;;1.54;73.47;101657.48;130531;1266;108495;-77
2022/01/23 13:18:36;;;;;;;48.90;26.00;;;;;;;1.59;73.64;101659.23;130528;1268;107598;-80
2022/01/23 13:32:15;;;;;;;25.90;13.50;;;;;;;1.53;72.77;101677.52;130248;1267;107271;-82
2022/01/23 13:35:26;;;;;;;39.00;20.30;;;;;;;1.42;73.07;101679.71;130477;1268;107874;-82
2022/01/23 13:38:34;;;;;;;44.40;21.70;;;;;;;1.35;73.16;101676.12;130487;1267;108757;-81
2022/01/23 13:41:46;;;;;;;37.90;19.50;;;;;;;1.30;73.40;101676.48;130673;1268;108860;-80
2022/01/23 13:49:07;;;;;;;61.80;29.70;;;;;;;1.11;73.36;101676.29;130335;1268;107668;-81
2022/01/23 13:52:35;;;;;;;30.60;15.50;;;;;;;1.13;73.55;101673.60;130625;1268;108762;-81
2022/01/23 13:59:12;;;;;;;45.40;24.20;;;;;;;1.19;73.48;101677.08;130524;1268;108730;-81
2022/01/23 14:02:25;;;;;;;28.80;15.50;;;;;;;1.24;73.38;101681.64;130442;1268;107593;-81
2022/01/23 14:05:32;;;;;;;94.40;53.30;;;;;;;1.21;73.19;101682.09;130990;1268;109161;-80
2022/01/23 14:08:38;;;;;;;64.10;38.60;;;;;;;1.19;73.40;101677.08;131194;1268;108947;-81
2022/01/23 14:11:44;;;;;;;43.90;21.30;;;;;;;1.16;73.45;101678.59;130601;1268;108902;-77
2022/01/23 14:15:03;;;;;;;31.80;17.80;;;;;;;1.13;73.59;101677.45;130566;1268;108693;-80
2022/01/23 14:18:12;;;;;;;28.10;15.30;;;;;;;1.12;73.60;101686.45;130607;1267;108914;-83
2022/01/23 14:21:19;;;;;;;33.10;16.80;;;;;;;1.07;73.25;101681.89;130569;1268;106801;-80
2022/01/23 14:24:30;;;;;;;39.50;19.50;;;;;;;1.01;73.37;101678.96;130312;1268;108557;-84
2022/01/23 14:27:36;;;;;;;35.60;17.20;;;;;;;1.00;73.74;101686.00;130551;1268;108703;-80
2022/01/23 14:30:46;;;;;;;28.20;14.60;;;;;;;1.02;73.56;101686.84;130352;1268;108511;-80
2022/01/23 14:33:56;;;;;;;35.30;21.30;;;;;;;1.07;73.57;101693.27;130434;1267;108797;-80
2022/01/23 14:37:06;;;;;;;29.60;16.90;;;;;;;1.10;73.52;101690.17;130494;1267;108646;-79
2022/01/23 14:40:24;;;;;;;28.40;16.00;;;;;;;1.14;73.56;101690.23;130853;1267;108971;-78
2022/01/23 14:43:36;;;;;;;26.70;14.20;;;;;;;1.11;73.40;101688.91;130664;1268;107181;-83
2022/01/23 14:46:42;;;;;;;27.00;14.50;;;;;;;1.00;73.29;101698.64;130613;1267;108641;-76
2022/01/23 14:49:48;;;;;;;27.90;14.80;;;;;;;0.91;73.54;101698.61;130405;1267;109520;-76
2022/01/23 14:52:53;;;;;;;29.00;16.10;;;;;;;0.90;73.93;101705.13;130442;1267;108505;-81
2022/01/23 14:56:02;;;;;;;28.90;16.10;;;;;;;0.92;73.90;101712.08;130425;1267;106792;-76
2022/01/23 14:59:11;;;;;;;30.40;15.90;;;;;;;0.92;73.83;101708.70;130435;1267;108847;-76
2022/01/23 15:02:17;;;;;;;42.80;19.10;;;;;;;0.91;73.93;101711.39;130372;1267;108717;-78
2022/01/23 15:05:24;;;;;;;40.60;19.20;;;;;;;0.90;73.98;101713.70;130381;1267;109078;-77
2022/01/23 15:08:30;;;;;;;79.70;31.20;;;;;;;0.91;73.95;101711.56;130421;1267;108674;-75
2022/01/23 15:11:36;;;;;;;34.00;15.70;;;;;;;0.98;74.02;101719.38;130373;1267;108948;-81
2022/01/23 15:14:41;;;;;;;38.20;18.70;;;;;;;1.08;73.96;101713.23;130503;1267;108735;-80
2022/01/23 15:17:47;;;;;;;38.00;19.00;;;;;;;1.17;73.93;101714.98;130434;1267;107483;-80
2022/01/23 15:20:52;;;;;;;38.10;17.90;;;;;;;1.27;73.84;101718.85;130326;1267;108802;-79
2022/01/23 15:23:58;;;;;;;42.40;19.90;;;;;;;1.35;73.79;101726.77;130353;1267;108768;-82
2022/01/23 15:27:04;;;;;;;42.30;20.60;;;;;;;1.35;73.64;101724.13;130373;1267;108840;-79
2022/01/23 15:30:14;;;;;;;66.80;33.10;;;;;;;1.36;73.76;101725.84;130545;1267;106693;-85
2022/01/23 15:33:19;;;;;;;82.80;36.90;;;;;;;1.37;73.63;101737.02;130392;1267;108645;-78
2022/01/23 15:36:24;;;;;;;69.90;33.70;;;;;;;1.27;73.50;101741.45;130325;1267;108698;-77
2022/01/23 15:39:31;;;;;;;80.90;35.10;;;;;;;1.12;73.64;101747.11;130316;1267;108818;-76
2022/01/23 15:42:36;;;;;;;79.50;39.70;;;;;;;0.98;73.70;101746.02;130404;1266;108632;-77
2022/01/23 15:45:45;;;;;;;71.90;32.30;;;;;;;0.87;73.90;101748.50;130308;1267;109123;-77
2022/01/23 15:48:50;;;;;;;72.60;34.90;;;;;;;0.76;74.00;101753.61;130381;1267;108832;-77
2022/01/23 15:51:55;;;;;;;65.20;33.80;;;;;;;0.71;74.13;101752.55;130348;1267;108786;-74
2022/01/23 15:55:01;;;;;;;68.10;32.40;;;;;;;0.71;74.19;101752.38;130367;1267;108701;-75
2022/01/23 15:58:07;;;;;;;57.50;26.80;;;;;;;0.73;73.97;101757.05;130423;1267;108785;-76
2022/01/23 16:01:12;;;;;;;63.80;29.00;;;;;;;0.74;74.00;101754.55;130308;1267;108584;-77
2022/01/23 16:04:19;;;;;;;69.00;27.30;;;;;;;0.76;73.90;101754.84;130498;1267;106863;-78
2022/01/23 16:07:25;;;;;;;82.40;30.70;;;;;;;0.80;73.99;101761.86;130314;1267;108693;-79
2022/01/23 16:10:30;;;;;;;80.30;32.00;;;;;;;0.86;73.86;101766.05;130629;1267;108732;-76
2022/01/23 16:13:36;;;;;;;83.70;32.90;;;;;;;0.87;73.80;101767.59;130566;1267;108635;-80
2022/01/23 16:16:41;;;;;;;81.40;30.80;;;;;;;0.83;73.69;101765.48;130463;1267;108686;-75
2022/01/23 16:19:46;;;;;;;75.20;29.60;;;;;;;0.81;73.65;101769.93;130362;1267;108819;-76
2022/01/23 16:22:52;;;;;;;56.40;25.90;;;;;;;0.75;73.74;101761.52;130458;1267;108690;-84
2022/01/23 16:25:57;;;;;;;44.00;22.20;;;;;;;0.67;73.56;101768.30;130606;1267;105499;-81
2022/01/23 16:29:04;;;;;;;39.80;20.20;;;;;;;0.59;73.57;101774.34;130620;1267;108524;-82
2022/01/23 16:32:10;;;;;;;35.40;18.10;;;;;;;0.54;73.66;101773.61;130448;1267;108546;-80
2022/01/23 16:35:19;;;;;;;34.00;16.90;;;;;;;0.50;73.72;101776.23;130473;1267;108766;-77
2022/01/23 16:38:25;;;;;;;36.30;18.30;;;;;;;0.43;73.86;101777.84;130424;1267;106922;-76
2022/01/23 16:41:30;;;;;;;35.80;17.20;;;;;;;0.37;73.84;101774.00;130376;1267;108638;-75
2022/01/23 16:44:36;;;;;;;34.10;16.70;;;;;;;0.32;73.85;101778.54;130300;1267;108698;-77
2022/01/23 16:47:41;;;;;;;32.90;16.40;;;;;;;0.27;73.88;101784.50;130266;1268;108857;-75
2022/01/23 16:50:47;;;;;;;31.90;15.50;;;;;;;0.19;73.87;101789.09;130287;1268;108636;-75
2022/01/23 16:53:52;;;;;;;34.70;16.30;;;;;;;0.12;74.01;101788.98;130341;1268;108396;-74